createdAt,value
2022-08-17T00:02:26.120Z,22.80
2022-08-17T00:04:54.361Z,22.80
2022-08-17T00:07:21.665Z,22.80
2022-08-17T00:09:49.011Z,22.80
2022-08-17T00:12:43.156Z,22.80
2022-08-17T00:15:03.898Z,22.80
2022-08-17T00:17:31.003Z,22.80
2022-08-17T00:19:57.941Z,22.80
2022-08-17T00:22:34.815Z,22.70
2022-08-17T00:25:07.571Z,22.70
2022-08-17T00:27:35.348Z,22.70
2022-08-17T00:30:04.057Z,22.70
2022-08-17T00:33:15.648Z,22.70
2022-08-17T00:35:28.002Z,22.80
2022-08-17T00:37:55.658Z,22.80
2022-08-17T00:40:24.792Z,22.70
2022-08-17T00:42:53.511Z,22.70
2022-08-17T00:45:21.285Z,22.60
2022-08-17T00:47:49.556Z,22.60
2022-08-17T00:50:19.055Z,22.60
2022-08-17T00:52:56.444Z,22.60
2022-08-17T00:55:25.378Z,22.60
2022-08-17T00:57:55.893Z,22.60
2022-08-17T01:00:27.285Z,22.60
2022-08-17T01:03:02.480Z,22.50
2022-08-17T01:05:32.904Z,22.40
2022-08-17T01:08:02.047Z,22.40
2022-08-17T01:10:58.481Z,22.40
2022-08-17T01:13:28.834Z,22.40
2022-08-17T01:16:04.788Z,22.30
2022-08-17T01:18:32.908Z,22.30
2022-08-17T01:21:17.155Z,22.20
2022-08-17T01:23:44.163Z,22.30
2022-08-17T01:26:11.344Z,22.40
2022-08-17T01:28:54.560Z,22.50
2022-08-17T01:31:24.358Z,22.40
2022-08-17T01:33:51.481Z,22.50
2022-08-17T01:36:18.700Z,22.50
2022-08-17T01:38:45.776Z,22.60
2022-08-17T01:41:16.658Z,22.60
2022-08-17T01:43:55.057Z,22.60
2022-08-17T01:46:27.153Z,22.60
2022-08-17T01:48:56.469Z,22.60
2022-08-17T01:51:26.220Z,22.60
2022-08-17T01:53:57.928Z,22.70
2022-08-17T01:56:26.232Z,22.70
2022-08-17T01:58:53.434Z,22.80
2022-08-17T02:01:24.397Z,22.80
2022-08-17T02:03:53.500Z,22.80
2022-08-17T02:06:30.481Z,22.80
2022-08-17T02:09:02.938Z,22.90
2022-08-17T02:11:33.776Z,22.90
2022-08-17T02:14:03.167Z,22.90
2022-08-17T02:16:37.368Z,22.90
2022-08-17T02:19:13.889Z,22.90
2022-08-17T02:21:42.590Z,22.80
2022-08-17T02:24:15.188Z,22.80
2022-08-17T02:26:42.309Z,22.90
2022-08-17T02:29:09.369Z,22.80
2022-08-17T02:31:36.584Z,22.80
2022-08-17T02:34:05.369Z,22.80
2022-08-17T02:36:34.367Z,22.80
2022-08-17T02:39:04.287Z,22.80
2022-08-17T02:41:31.437Z,22.80
2022-08-17T02:43:58.877Z,22.80
2022-08-17T02:46:26.432Z,22.70
2022-08-17T02:48:53.843Z,22.70
2022-08-17T02:51:20.802Z,22.70
2022-08-17T02:53:47.923Z,22.60
2022-08-17T02:56:15.145Z,22.70
2022-08-17T02:58:42.292Z,22.70
2022-08-17T03:01:11.009Z,22.70
2022-08-17T03:03:38.360Z,22.70
2022-08-17T03:06:07.948Z,22.70
2022-08-17T03:08:37.631Z,22.70
2022-08-17T03:11:05.029Z,22.60
2022-08-17T03:13:32.260Z,22.50
2022-08-17T03:15:59.619Z,22.50
2022-08-17T03:18:28.075Z,22.40
2022-08-17T03:20:57.641Z,22.50
2022-08-17T03:23:25.729Z,22.40
2022-08-17T03:25:54.283Z,22.40
2022-08-17T03:28:22.364Z,22.40
2022-08-17T03:30:51.177Z,22.40
2022-08-17T03:33:19.093Z,22.30
2022-08-17T03:35:46.488Z,22.30
2022-08-17T03:38:15.954Z,22.30
2022-08-17T03:40:56.437Z,22.30
2022-08-17T03:43:31.176Z,22.30
2022-08-17T03:46:28.615Z,22.20
2022-08-17T03:49:25.997Z,22.20
2022-08-17T03:52:15.757Z,22.10
2022-08-17T03:55:02.814Z,22.10
2022-08-17T03:57:31.064Z,22.10
2022-08-17T03:59:58.218Z,22.10
2022-08-17T04:02:29.709Z,22.10
2022-08-17T04:04:57.555Z,22.10
2022-08-17T04:07:30.920Z,22.10
2022-08-17T04:09:58.386Z,22.00
2022-08-17T04:12:26.842Z,22.00
2022-08-17T04:14:55.263Z,22.00
2022-08-17T04:17:26.156Z,22.00
2022-08-17T04:19:54.240Z,22.00
2022-08-17T04:22:30.534Z,21.90
2022-08-17T04:25:18.192Z,22.00
2022-08-17T04:27:45.258Z,22.00
2022-08-17T04:30:13.363Z,22.00
2022-08-17T04:33:14.349Z,22.10
2022-08-17T04:35:45.853Z,22.00
2022-08-17T04:38:16.235Z,22.10
2022-08-17T04:41:02.727Z,22.10
2022-08-17T04:43:31.223Z,22.20
2022-08-17T04:46:01.673Z,22.30
2022-08-17T04:48:37.214Z,22.30
2022-08-17T04:51:12.136Z,22.20
2022-08-17T04:53:41.845Z,22.40
2022-08-17T04:56:16.200Z,22.30
2022-08-17T04:58:48.329Z,22.30
2022-08-17T05:01:23.449Z,22.30
2022-08-17T05:03:53.410Z,22.30
2022-08-17T05:06:21.056Z,22.30
2022-08-17T05:08:48.173Z,22.30
2022-08-17T05:11:17.979Z,22.40
2022-08-17T05:13:45.233Z,22.40
2022-08-17T05:16:15.427Z,22.50
2022-08-17T05:18:43.372Z,22.60
2022-08-17T05:21:10.656Z,22.60
2022-08-17T05:23:42.928Z,22.60
2022-08-17T05:26:25.465Z,22.60
2022-08-17T05:29:00.656Z,22.60
2022-08-17T05:31:30.941Z,22.60
2022-08-17T05:33:58.313Z,22.70
2022-08-17T05:36:41.684Z,22.70
2022-08-17T05:39:16.319Z,22.80
2022-08-17T05:41:48.411Z,22.90
2022-08-17T05:44:16.592Z,22.90
2022-08-17T05:46:52.192Z,22.90
2022-08-17T05:49:26.266Z,23.00
2022-08-17T05:55:13.034Z,23.00
2022-08-17T05:57:55.927Z,23.00
2022-08-17T06:00:37.276Z,23.20
2022-08-17T06:03:28.468Z,23.20
2022-08-17T06:06:17.390Z,23.30
2022-08-17T06:09:03.351Z,23.30
2022-08-17T06:12:00.333Z,23.50
2022-08-17T06:14:30.442Z,23.60
2022-08-17T06:17:16.412Z,23.40
2022-08-17T06:19:49.323Z,23.50
2022-08-17T06:22:22.313Z,23.60
2022-08-17T06:24:53.845Z,23.70
2022-08-17T06:27:45.047Z,23.80
2022-08-17T06:30:16.810Z,23.90
2022-08-17T06:32:50.618Z,24.20
2022-08-17T06:36:02.609Z,24.40
2022-08-17T06:38:53.852Z,25.00
2022-08-17T06:41:49.737Z,25.30
2022-08-17T06:44:43.312Z,25.40
2022-08-17T06:47:28.701Z,25.50
2022-08-17T06:50:16.048Z,25.60
2022-08-17T06:53:10.760Z,25.90
2022-08-17T06:55:56.108Z,25.80
2022-08-17T06:58:29.558Z,25.80
2022-08-17T07:01:01.829Z,26.00
2022-08-17T07:03:38.142Z,26.10
2022-08-17T07:06:13.400Z,26.50
2022-08-17T07:09:13.842Z,27.00
2022-08-17T07:12:05.636Z,27.10
2022-08-17T07:14:52.151Z,27.70
2022-08-17T07:17:24.359Z,27.60
2022-08-17T07:20:16.511Z,27.70
2022-08-17T07:23:04.962Z,27.80
2022-08-17T07:25:32.781Z,28.20
2022-08-17T07:28:05.985Z,28.20
2022-08-17T07:30:45.799Z,28.30
2022-08-17T07:33:20.329Z,27.50
2022-08-17T07:35:49.331Z,27.40
2022-08-17T07:38:28.445Z,27.40
2022-08-17T07:41:02.163Z,27.20
2022-08-17T07:43:31.178Z,27.10
2022-08-17T07:46:25.500Z,27.00
2022-08-17T07:49:16.469Z,27.20
2022-08-17T07:51:44.093Z,27.30
2022-08-17T07:54:22.748Z,27.80
2022-08-17T07:56:50.884Z,28.30
2022-08-17T07:59:33.524Z,29.40
2022-08-17T08:02:02.831Z,29.40
2022-08-17T08:05:14.379Z,29.00
2022-08-17T08:08:16.279Z,28.90
2022-08-17T08:10:45.217Z,28.80
2022-08-17T08:13:32.526Z,28.60
2022-08-17T08:16:25.044Z,28.80
2022-08-17T08:18:59.849Z,28.70
2022-08-17T08:21:48.369Z,28.40
2022-08-17T08:24:34.188Z,28.50
2022-08-17T08:27:20.302Z,28.60
2022-08-17T08:29:53.831Z,28.80
2022-08-17T08:32:28.989Z,28.60
2022-08-17T08:35:14.832Z,29.20
2022-08-17T08:38:33.356Z,29.30
2022-08-17T08:41:24.106Z,29.90
2022-08-17T08:44:22.214Z,30.70
2022-08-17T08:47:26.638Z,31.50
2022-08-17T08:50:08.090Z,31.90
2022-08-17T08:53:11.199Z,31.60
2022-08-17T08:55:53.739Z,30.90
2022-08-17T08:58:48.599Z,30.70
2022-08-17T09:01:51.470Z,30.90
2022-08-17T09:05:10.273Z,30.60
2022-08-17T09:07:45.049Z,30.90
2022-08-17T09:10:22.233Z,30.90
2022-08-17T09:13:23.243Z,30.70
2022-08-17T09:15:59.671Z,31.10
2022-08-17T09:19:02.303Z,31.60
2022-08-17T09:21:33.664Z,31.30
2022-08-17T09:24:14.013Z,31.20
2022-08-17T09:27:07.626Z,31.70
2022-08-17T09:29:39.740Z,31.80
2022-08-17T09:32:22.545Z,33.30
2022-08-17T09:34:58.623Z,34.20
2022-08-17T09:37:47.155Z,34.00
2022-08-17T09:40:30.436Z,34.50
2022-08-17T09:43:41.228Z,34.40
2022-08-17T09:46:41.501Z,34.40
2022-08-17T09:49:12.373Z,35.10
2022-08-17T09:51:49.642Z,34.10
2022-08-17T09:54:44.673Z,33.70
2022-08-17T09:57:30.661Z,33.60
2022-08-17T10:00:25.242Z,33.50
2022-08-17T10:02:58.626Z,33.90
2022-08-17T10:05:47.522Z,34.00
2022-08-17T10:08:33.492Z,33.70
2022-08-17T10:11:48.151Z,33.20
2022-08-17T10:14:53.465Z,33.70
2022-08-17T10:17:40.098Z,32.90
2022-08-17T10:20:19.946Z,32.70
2022-08-17T10:23:27.990Z,32.50
2022-08-17T10:26:14.831Z,32.40
2022-08-17T10:28:54.728Z,32.40
2022-08-17T10:31:35.770Z,32.00
2022-08-17T10:34:26.859Z,31.80
2022-08-17T10:37:32.615Z,32.50
2022-08-17T10:40:26.513Z,33.40
2022-08-17T10:43:01.580Z,34.50
2022-08-17T10:45:45.949Z,35.30
2022-08-17T10:48:14.394Z,35.20
2022-08-17T10:50:58.144Z,34.70
2022-08-17T10:53:49.790Z,34.50
2022-08-17T10:56:19.181Z,33.90
2022-08-17T10:59:01.409Z,33.60
2022-08-17T11:01:37.255Z,33.90
2022-08-17T11:04:09.154Z,33.70
2022-08-17T11:06:39.155Z,33.60
2022-08-17T11:09:26.359Z,33.90
2022-08-17T11:12:28.123Z,34.60
2022-08-17T11:15:37.041Z,34.30
2022-08-17T11:18:42.073Z,33.60
2022-08-17T11:21:28.069Z,32.50
2022-08-17T11:24:14.834Z,32.00
2022-08-17T11:26:49.106Z,31.40
2022-08-17T11:29:27.770Z,31.50
2022-08-17T11:32:02.300Z,31.20
2022-08-17T11:34:32.442Z,31.40
2022-08-17T11:37:18.150Z,31.20
2022-08-17T11:40:08.652Z,31.00
2022-08-17T11:43:01.014Z,31.10
2022-08-17T11:45:56.138Z,31.30
2022-08-17T11:48:57.952Z,31.60
2022-08-17T11:51:54.311Z,32.20
2022-08-17T11:54:33.270Z,33.40
2022-08-17T11:57:26.850Z,33.20
2022-08-17T12:00:00.282Z,33.30
2022-08-17T12:02:31.452Z,33.60
2022-08-17T12:05:18.153Z,33.60
2022-08-17T12:07:45.100Z,33.30
2022-08-17T12:10:19.052Z,33.70
2022-08-17T12:12:48.629Z,33.70
2022-08-17T12:15:28.716Z,34.30
2022-08-17T12:17:57.471Z,34.60
2022-08-17T12:20:32.575Z,34.80
2022-08-17T12:23:25.546Z,34.80
2022-08-17T12:26:26.050Z,34.50
2022-08-17T12:29:00.317Z,35.00
2022-08-17T12:31:29.783Z,35.30
2022-08-17T12:33:56.860Z,35.40
2022-08-17T12:36:26.578Z,35.60
2022-08-17T12:39:13.297Z,35.50
2022-08-17T12:41:54.733Z,35.20
2022-08-17T12:44:34.463Z,35.00
2022-08-17T12:47:21.056Z,35.10
2022-08-17T12:49:54.773Z,34.30
2022-08-17T12:52:32.926Z,34.60
2022-08-17T12:55:06.037Z,34.80
2022-08-17T12:57:39.903Z,33.90
2022-08-17T13:00:26.528Z,33.00
2022-08-17T13:03:13.725Z,32.30
2022-08-17T13:05:57.110Z,31.90
2022-08-17T13:08:38.160Z,31.80
2022-08-17T13:11:18.967Z,31.70
2022-08-17T13:13:51.059Z,31.70
2022-08-17T13:16:27.753Z,31.60
2022-08-17T13:19:15.850Z,31.60
2022-08-17T13:21:53.077Z,31.40
2022-08-17T13:24:27.695Z,31.40
2022-08-17T13:27:08.811Z,31.40
2022-08-17T13:29:51.435Z,31.20
2022-08-17T13:32:44.019Z,31.30
2022-08-17T13:35:39.569Z,31.30
2022-08-17T13:38:09.915Z,31.30
2022-08-17T13:40:44.174Z,31.30
2022-08-17T13:43:12.267Z,31.00
2022-08-17T13:45:51.224Z,31.10
2022-08-17T13:48:27.514Z,31.00
2022-08-17T13:50:57.681Z,30.80
2022-08-17T13:53:36.958Z,31.00
2022-08-17T13:56:37.082Z,31.10
2022-08-17T13:59:01.796Z,30.80
2022-08-17T14:01:32.880Z,31.00
2022-08-17T14:04:06.574Z,31.00
2022-08-17T14:06:52.838Z,30.90
2022-08-17T14:09:24.332Z,30.90
2022-08-17T14:11:54.410Z,30.80
2022-08-17T14:14:23.446Z,30.80
2022-08-17T14:16:52.498Z,30.90
2022-08-17T14:19:22.093Z,30.90
2022-08-17T14:21:49.406Z,30.90
2022-08-17T14:24:21.966Z,30.80
2022-08-17T14:26:52.925Z,30.60
2022-08-17T14:29:25.771Z,30.50
2022-08-17T14:31:54.795Z,30.30
2022-08-17T14:34:23.191Z,30.30
2022-08-17T14:36:51.408Z,30.40
2022-08-17T14:39:20.031Z,30.40
2022-08-17T14:41:47.668Z,30.50
2022-08-17T14:44:15.633Z,30.50
2022-08-17T14:46:44.532Z,30.50
2022-08-17T14:49:16.260Z,30.40
2022-08-17T14:51:44.431Z,30.40
2022-08-17T14:54:32.993Z,30.30
2022-08-17T14:57:23.425Z,30.20
2022-08-17T14:59:54.995Z,30.20
2022-08-17T15:02:29.744Z,30.30
2022-08-17T15:05:04.615Z,30.30
2022-08-17T15:07:31.930Z,30.30
2022-08-17T15:10:02.805Z,30.20
2022-08-17T15:12:34.077Z,30.10
2022-08-17T15:15:05.450Z,30.10
2022-08-17T15:17:44.929Z,30.10
2022-08-17T15:20:20.729Z,30.00
2022-08-17T15:22:56.085Z,29.90
2022-08-17T15:25:24.507Z,30.00
2022-08-17T15:27:52.023Z,29.90
2022-08-17T15:30:20.105Z,29.80
2022-08-17T15:32:54.030Z,29.80
2022-08-17T15:35:28.968Z,29.80
2022-08-17T15:38:06.190Z,29.80
2022-08-17T15:40:37.954Z,29.70
2022-08-17T15:43:11.918Z,29.60
2022-08-17T15:45:40.244Z,29.50
2022-08-17T15:48:07.722Z,29.50
2022-08-17T15:50:35.823Z,29.40
2022-08-17T15:53:05.123Z,29.50
2022-08-17T15:55:33.892Z,29.50
2022-08-17T15:58:02.398Z,29.40
2022-08-17T16:00:30.058Z,29.30
2022-08-17T16:03:44.648Z,29.10
2022-08-17T16:05:50.589Z,29.10
2022-08-17T16:08:21.234Z,29.00
2022-08-17T16:10:49.834Z,28.90
2022-08-17T16:13:18.488Z,28.80
2022-08-17T16:15:56.573Z,28.80
2022-08-17T16:18:26.477Z,28.80
2022-08-17T16:20:53.725Z,28.70
2022-08-17T16:23:20.670Z,28.70
2022-08-17T16:25:52.946Z,28.60
2022-08-17T16:28:22.121Z,28.40
2022-08-17T16:30:49.865Z,28.40
2022-08-17T16:33:18.811Z,28.40
2022-08-17T16:35:46.242Z,28.30
2022-08-17T16:38:13.442Z,28.20
2022-08-17T16:40:41.482Z,28.10
2022-08-17T16:43:12.258Z,28.00
2022-08-17T16:45:41.066Z,27.90
2022-08-17T16:48:09.156Z,27.90
2022-08-17T16:50:36.896Z,27.80
2022-08-17T16:53:11.082Z,27.70
2022-08-17T16:55:38.680Z,27.60
2022-08-17T16:58:06.637Z,27.40
2022-08-17T17:00:34.583Z,27.30
2022-08-17T17:03:19.973Z,27.20
2022-08-17T17:05:58.027Z,27.20
2022-08-17T17:08:33.520Z,27.00
2022-08-17T17:11:16.325Z,26.90
2022-08-17T17:13:49.262Z,26.60
2022-08-17T17:16:41.602Z,26.40
2022-08-17T17:19:34.598Z,26.30
2022-08-17T17:22:17.064Z,26.20
2022-08-17T17:24:50.405Z,26.10
2022-08-17T17:27:55.052Z,25.90
2022-08-17T17:30:34.990Z,25.60
2022-08-17T17:33:14.770Z,25.30
2022-08-17T17:36:07.205Z,25.10
2022-08-17T17:38:49.341Z,25.00
2022-08-17T17:41:26.338Z,24.80
2022-08-17T17:44:01.886Z,24.70
2022-08-17T17:46:38.199Z,24.60
2022-08-17T17:49:06.433Z,24.40
2022-08-17T17:52:06.402Z,24.30
2022-08-17T17:54:33.715Z,24.10
2022-08-17T17:57:21.490Z,24.10
2022-08-17T18:00:29.677Z,24.20
2022-08-17T18:03:08.924Z,24.20
2022-08-17T18:05:51.780Z,23.90
2022-08-17T18:08:49.720Z,23.80
2022-08-17T18:11:35.190Z,23.40
2022-08-17T18:14:30.440Z,23.30
2022-08-17T18:17:00.489Z,23.10
2022-08-17T18:19:29.422Z,22.90
2022-08-17T18:22:19.326Z,22.80
2022-08-17T18:24:49.082Z,22.80
2022-08-17T18:27:43.437Z,22.70
2022-08-17T18:30:13.470Z,22.60
2022-08-17T18:32:43.732Z,22.50
2022-08-17T18:35:14.434Z,22.40
2022-08-17T18:37:53.776Z,22.30
2022-08-17T18:40:21.413Z,22.30
2022-08-17T18:43:24.458Z,22.20
2022-08-17T18:45:58.250Z,22.10
2022-08-17T18:48:28.467Z,22.00
2022-08-17T18:51:27.450Z,22.00
2022-08-17T18:54:17.603Z,21.90
2022-08-17T18:56:51.300Z,21.80
2022-08-17T18:59:33.889Z,21.70
2022-08-17T19:02:09.989Z,21.60
2022-08-17T19:05:08.041Z,21.60
2022-08-17T19:07:42.340Z,21.50
2022-08-17T19:10:24.598Z,21.50
2022-08-17T19:13:15.621Z,21.30
2022-08-17T19:16:17.847Z,21.30
2022-08-17T19:18:47.783Z,21.30
2022-08-17T19:21:25.900Z,21.20
2022-08-17T19:23:59.121Z,21.20
2022-08-17T19:26:54.451Z,21.10
2022-08-17T19:29:39.262Z,21.20
2022-08-17T19:32:12.100Z,21.10
2022-08-17T19:34:45.215Z,21.00
2022-08-17T19:37:30.840Z,21.00
2022-08-17T19:40:51.880Z,21.00
2022-08-17T19:43:58.320Z,20.90
2022-08-17T19:46:43.060Z,20.80
2022-08-17T19:49:53.646Z,20.70
2022-08-17T19:52:32.789Z,20.80
2022-08-17T19:55:20.905Z,20.70
2022-08-17T19:58:32.094Z,20.60
2022-08-17T20:01:01.181Z,20.60
2022-08-17T20:03:38.973Z,20.50
2022-08-17T20:06:14.254Z,20.50
2022-08-17T20:08:49.361Z,20.40
2022-08-17T20:11:21.289Z,20.50
2022-08-17T20:13:58.952Z,20.50
2022-08-17T20:16:26.339Z,20.40
2022-08-17T20:19:03.511Z,20.50
2022-08-17T20:22:06.858Z,20.50
2022-08-17T20:24:44.345Z,20.40
2022-08-17T20:28:02.901Z,20.40
2022-08-17T20:30:41.874Z,20.30
2022-08-17T20:33:31.842Z,20.30
2022-08-17T20:36:13.134Z,20.30
2022-08-17T20:38:51.337Z,20.20
2022-08-17T20:41:25.211Z,20.30
2022-08-17T20:43:59.068Z,20.20
2022-08-17T20:46:38.386Z,20.30
2022-08-17T20:49:14.668Z,20.20
2022-08-17T20:52:13.553Z,20.20
2022-08-17T20:54:47.002Z,20.10
2022-08-17T20:57:32.212Z,20.20
2022-08-17T21:00:15.857Z,20.20
2022-08-17T21:02:52.084Z,20.10
2022-08-17T21:05:34.182Z,20.10
2022-08-17T21:08:14.377Z,20.10
2022-08-17T21:10:45.878Z,20.00
2022-08-17T21:13:15.348Z,20.00
2022-08-17T21:15:42.650Z,20.00
2022-08-17T21:18:23.611Z,19.90
2022-08-17T21:21:34.414Z,19.80
2022-08-17T21:24:01.366Z,19.70
2022-08-17T21:26:32.575Z,19.70
2022-08-17T21:29:32.368Z,19.60
2022-08-17T21:32:00.650Z,19.50
2022-08-17T21:34:37.074Z,19.40
2022-08-17T21:37:25.391Z,19.40
2022-08-17T21:40:10.818Z,19.30
2022-08-17T21:43:02.276Z,19.40
2022-08-17T21:45:39.024Z,19.30
2022-08-17T21:48:11.604Z,19.20
2022-08-17T21:50:41.641Z,19.20
2022-08-17T21:53:14.211Z,19.10
2022-08-17T21:55:41.308Z,19.10
2022-08-17T21:58:34.362Z,19.10
2022-08-17T22:01:13.391Z,19.00
2022-08-17T22:03:41.692Z,18.90
2022-08-17T22:06:28.570Z,18.90
2022-08-17T22:09:27.824Z,18.90
2022-08-17T22:12:03.271Z,18.90
2022-08-17T22:14:51.454Z,18.80
2022-08-17T22:17:28.462Z,18.80
2022-08-17T22:20:01.724Z,18.70
2022-08-17T22:22:56.792Z,18.70
2022-08-17T22:25:26.263Z,18.70
2022-08-17T22:27:57.720Z,18.70
2022-08-17T22:30:30.391Z,18.60
2022-08-17T22:32:58.119Z,18.60
2022-08-17T22:35:38.032Z,18.60
2022-08-17T22:38:19.915Z,18.60
2022-08-17T22:40:52.588Z,18.60
2022-08-17T22:43:26.746Z,18.60
2022-08-17T22:45:56.820Z,18.50
2022-08-17T22:48:27.153Z,18.40
2022-08-17T22:51:12.588Z,18.40
2022-08-17T22:54:34.405Z,18.40
2022-08-17T22:57:23.984Z,18.40
2022-08-17T22:59:54.997Z,18.30
2022-08-17T23:02:26.259Z,18.30
2022-08-17T23:05:10.824Z,18.20
2022-08-17T23:07:38.011Z,18.20
2022-08-17T23:10:06.585Z,18.10
2022-08-17T23:12:40.079Z,18.10
2022-08-17T23:15:14.444Z,18.10
2022-08-17T23:17:42.142Z,18.00
2022-08-17T23:20:14.783Z,18.00
2022-08-17T23:22:51.403Z,18.00
2022-08-17T23:25:28.059Z,17.90
2022-08-17T23:27:57.540Z,18.00
2022-08-17T23:30:25.722Z,17.90
2022-08-17T23:32:56.621Z,17.80
2022-08-17T23:35:40.279Z,17.80
2022-08-17T23:38:09.404Z,17.70
2022-08-17T23:40:37.848Z,17.80
2022-08-17T23:43:24.021Z,17.70
2022-08-17T23:45:53.351Z,17.70
2022-08-17T23:48:36.132Z,17.60
2022-08-17T23:51:19.044Z,17.60
2022-08-17T23:53:51.055Z,17.60
2022-08-17T23:56:24.157Z,17.50
2022-08-17T23:58:51.540Z,17.50
